createdAt,value
2019-05-17T00:02:37.360Z,96.17
2019-05-17T00:03:28.572Z,97.03
2019-05-17T00:04:21.761Z,96.8
2019-05-17T00:05:12.336Z,96.51
2019-05-17T00:06:06.811Z,96.94
2019-05-17T00:06:57.139Z,96.8
2019-05-17T00:07:48.962Z,97.75
2019-05-17T00:08:40.302Z,97.94
2019-05-17T00:16:22.309Z,96.27
2019-05-17T00:17:20.724Z,96.22
2019-05-17T00:18:16.946Z,96.32
2019-05-17T00:19:08.275Z,98.52
2019-05-17T00:20:03.144Z,98.71
2019-05-17T00:20:53.498Z,98.32
2019-05-17T00:23:46.768Z,98.42
2019-05-17T00:24:26.702Z,98.99
2019-05-17T00:25:16.597Z,98.71
2019-05-17T00:25:57.132Z,98.52
2019-05-17T00:26:39.731Z,99.08
2019-05-17T00:27:22.030Z,99.99
2019-05-17T00:28:02.411Z,99.99
2019-05-17T00:28:44.203Z,99.99
2019-05-17T00:36:46.886Z,99.04
2019-05-17T00:37:23.085Z,99.13
2019-05-17T00:38:50.785Z,99.99
2019-05-17T00:50:16.954Z,99.57
2019-05-17T00:51:04.461Z,99.99
2019-05-17T00:51:56.694Z,99.66
2019-05-17T00:52:49.389Z,99.18
2019-05-17T00:53:43.260Z,98.99
2019-05-17T00:57:08.745Z,97.71
2019-05-17T01:03:49.592Z,96.84
2019-05-17T01:10:47.204Z,99.76
2019-05-17T01:11:27.057Z,99.66
2019-05-17T01:12:07.009Z,99.57
2019-05-17T01:12:51.379Z,99.08
2019-05-17T01:13:34.577Z,99.95
2019-05-17T01:14:17.492Z,99.66
2019-05-17T01:14:59.855Z,99.47
2019-05-17T01:16:23.554Z,99.08
2019-05-17T01:17:03.417Z,98.8
2019-05-17T01:17:43.913Z,99.47
2019-05-17T01:18:26.532Z,99.85
2019-05-17T01:19:06.437Z,99.76
2019-05-17T01:19:47.155Z,98.71
2019-05-17T01:21:11.094Z,99.76
2019-05-17T01:21:53.210Z,98.99
2019-05-17T01:22:36.608Z,99.37
2019-05-17T01:23:16.607Z,99.76
2019-05-17T01:23:58.170Z,99.99
2019-05-17T01:24:38.534Z,99.99
2019-05-17T01:25:19.017Z,99.99
2019-05-17T01:26:00.334Z,99.99
2019-05-17T01:26:43.087Z,99.99
2019-05-17T01:27:26.247Z,99.99
2019-05-17T01:28:04.316Z,99.99
2019-05-17T01:28:46.618Z,99.47
2019-05-17T01:29:26.791Z,99.37
2019-05-17T01:30:06.807Z,99.76
2019-05-17T01:30:46.342Z,99.99
2019-05-17T01:31:26.649Z,99.57
2019-05-17T01:32:07.365Z,99.99
2019-05-17T01:32:47.729Z,99.99
2019-05-17T01:34:09.401Z,99.99
2019-05-17T01:34:49.822Z,99.99
2019-05-17T01:35:30.152Z,99.99
2019-05-17T01:36:10.702Z,99.99
2019-05-17T01:36:50.958Z,99.99
2019-05-17T01:37:31.364Z,99.99
2019-05-17T01:38:14.450Z,99.99
2019-05-17T01:39:13.143Z,99.99
2019-05-17T01:39:48.693Z,99.99
2019-05-17T01:42:47.444Z,99.18
2019-05-17T01:45:18.379Z,97.71
2019-05-17T01:52:53.558Z,96.84
2019-05-17T01:53:38.530Z,96.75
2019-05-17T01:54:21.722Z,97.8
2019-05-17T01:55:03.077Z,98.37
2019-05-17T01:55:50.334Z,98.23
2019-05-17T01:56:30.765Z,98.8
2019-05-17T01:57:11.149Z,98.23
2019-05-17T01:57:51.520Z,98.32
2019-05-17T01:58:33.656Z,97.47
2019-05-17T01:59:14.230Z,97.66
2019-05-17T01:59:57.112Z,97.8
2019-05-17T02:00:38.500Z,97.94
2019-05-17T02:01:19.801Z,96.8
2019-05-17T02:02:07.103Z,97.8
2019-05-17T02:02:47.078Z,96.94
2019-05-17T02:14:03.790Z,99.08
2019-05-17T02:14:57.500Z,99.18
2019-05-17T02:15:48.893Z,99.76
2019-05-17T02:16:47.375Z,99.66
2019-05-17T02:27:52.151Z,99.99
2019-05-17T02:28:32.112Z,99.99
2019-05-17T02:29:12.022Z,99.99
2019-05-17T02:29:54.873Z,99.99
2019-05-17T02:30:35.258Z,99.99
2019-05-17T02:31:17.647Z,99.99
2019-05-17T02:31:58.903Z,99.99
2019-05-17T02:32:39.299Z,99.99
2019-05-17T02:33:23.345Z,99.99
2019-05-17T02:34:02.788Z,99.99
2019-05-17T02:34:43.755Z,99.99
2019-05-17T02:45:52.864Z,99.99
2019-05-17T02:46:33.762Z,99.99
2019-05-17T02:47:16.467Z,99.99
2019-05-17T02:47:57.361Z,99.99
2019-05-17T02:48:42.508Z,99.99
2019-05-17T02:49:23.498Z,99.99
2019-05-17T02:50:05.388Z,99.99
2019-05-17T02:50:48.212Z,99.99
2019-05-17T02:51:28.297Z,99.99
2019-05-17T02:52:12.358Z,99.99
2019-05-17T02:52:54.331Z,99.99
2019-05-17T02:53:42.856Z,99.99
2019-05-17T02:54:23.437Z,99.99
2019-05-17T02:55:05.626Z,99.99
2019-05-17T02:55:45.937Z,99.99
2019-05-17T02:56:26.311Z,99.99
2019-05-17T02:57:08.223Z,99.99
2019-05-17T02:57:48.437Z,99.99
2019-05-17T02:58:28.760Z,99.99
2019-05-17T02:59:15.893Z,99.99
2019-05-17T02:59:56.313Z,99.99
2019-05-17T03:00:36.644Z,99.99
2019-05-17T03:01:58.374Z,99.99
2019-05-17T03:02:37.950Z,99.99
2019-05-17T03:09:12.453Z,99.99
2019-05-17T03:12:44.287Z,99.61
2019-05-17T03:13:23.496Z,99.99
2019-05-17T03:14:04.160Z,99.99
2019-05-17T03:14:43.691Z,99.99
2019-05-17T03:15:24.131Z,99.99
2019-05-17T03:16:07.862Z,99.99
2019-05-17T05:09:42.904Z,97.89
2019-05-17T05:10:22.773Z,96.84
2019-05-17T05:11:03.912Z,96.84
2019-05-17T05:11:53.064Z,97.61
2019-05-17T05:12:26.713Z,97.94
2019-05-17T05:13:07.107Z,98.32
2019-05-17T05:13:49.264Z,99.18
2019-05-17T05:14:28.637Z,99.08
2019-05-17T05:15:12.285Z,99.18
2019-05-17T05:15:52.326Z,97.85
2019-05-17T05:16:32.343Z,99.08
2019-05-17T05:17:12.962Z,98.99
2019-05-17T05:17:53.139Z,99.37
2019-05-17T05:18:33.490Z,99.99
2019-05-17T05:19:14.025Z,99.66
2019-05-17T05:19:55.903Z,98.99
2019-05-17T05:20:36.362Z,98.61
2019-05-17T05:21:17.665Z,97.47
2019-05-17T05:21:58.099Z,99.08
2019-05-17T05:22:38.509Z,98.32
2019-05-17T05:23:19.057Z,98.13
2019-05-17T05:23:59.331Z,98.8
2019-05-17T05:24:42.215Z,99.37
2019-05-17T05:25:23.691Z,98.99
2019-05-17T05:26:04.198Z,97.89
2019-05-17T05:26:44.660Z,96.27
2019-05-17T05:27:26.092Z,95.61
2019-05-17T05:28:06.879Z,95.22
2019-05-17T05:35:12.277Z,95.46
2019-05-17T05:35:51.832Z,93.98
2019-05-17T05:36:34.038Z,93.79
2019-05-17T05:37:17.019Z,93.07
2019-05-17T05:37:57.414Z,94.27
2019-05-17T05:38:39.601Z,94.65
2019-05-17T05:39:20.051Z,94.65
2019-05-17T05:40:02.275Z,94.65
2019-05-17T05:40:44.011Z,95.32
2019-05-17T05:41:26.078Z,94.65
2019-05-17T05:42:10.368Z,94.27
2019-05-17T05:42:48.070Z,94.65
2019-05-17T05:43:28.687Z,94.46
2019-05-17T05:44:09.041Z,93.41
2019-05-17T05:45:32.043Z,93.88
2019-05-17T05:46:11.712Z,94.46
2019-05-17T05:46:51.861Z,94.84
2019-05-17T05:48:13.094Z,95.03
2019-05-17T05:48:53.285Z,95.51
2019-05-17T05:49:35.497Z,94.93
2019-05-17T05:50:17.626Z,95.03
2019-05-17T05:50:56.881Z,95.22
2019-05-17T05:51:42.419Z,93.98
2019-05-17T05:52:21.993Z,94.27
2019-05-17T05:53:04.594Z,94.74
2019-05-17T05:53:44.951Z,94.55
2019-05-17T05:54:25.415Z,94.93
2019-05-17T05:55:06.539Z,95.22
2019-05-17T05:55:47.309Z,96.08
2019-05-17T05:56:27.458Z,96.27
2019-05-17T05:57:12.453Z,95.32
2019-05-17T05:57:52.238Z,96.08
2019-05-17T05:58:32.438Z,95.32
2019-05-17T05:59:12.650Z,94.51
2019-05-17T05:59:53.166Z,93.93
2019-05-17T06:01:15.650Z,92.97
2019-05-17T06:01:56.087Z,92.21
2019-05-17T06:02:53.609Z,93.26
2019-05-17T06:03:33.956Z,93.74
2019-05-17T06:04:14.629Z,94.51
2019-05-17T06:08:08.653Z,93.55
2019-05-17T06:08:48.982Z,93.36
2019-05-17T06:09:31.773Z,94.6
2019-05-17T06:10:12.863Z,93.36
2019-05-17T06:11:32.539Z,91.83
2019-05-17T06:12:22.877Z,92.3
2019-05-17T06:12:54.000Z,91.88
2019-05-17T06:13:34.397Z,91.39
2019-05-17T06:14:14.816Z,90.63
2019-05-17T06:14:55.269Z,90.63
2019-05-17T06:15:36.596Z,90.25
2019-05-17T06:16:22.542Z,89.87
2019-05-17T06:17:02.924Z,88.81
2019-05-17T06:17:42.740Z,90.06
2019-05-17T06:19:02.430Z,90.06
2019-05-17T06:19:42.359Z,89.87
2019-05-17T06:20:22.712Z,90.82
2019-05-17T06:21:43.620Z,91.02
2019-05-17T06:22:24.057Z,90.82
2019-05-17T06:23:04.342Z,90.82
2019-05-17T06:23:44.691Z,90.82
2019-05-17T06:24:26.901Z,89.96
2019-05-17T06:25:07.321Z,90.25
2019-05-17T06:25:48.608Z,90.06
2019-05-17T06:26:37.867Z,91.3
2019-05-17T06:28:37.269Z,91.97
2019-05-17T06:29:17.766Z,91.49
2019-05-17T06:29:58.333Z,91.11
2019-05-17T06:30:38.759Z,92.35
2019-05-17T06:31:23.929Z,91.59
2019-05-17T06:32:04.368Z,90.92
2019-05-17T06:32:45.687Z,89.87
2019-05-17T06:38:59.314Z,92.21
2019-05-17T06:39:39.144Z,93.45
2019-05-17T06:40:21.586Z,92.5
2019-05-17T06:41:01.588Z,92.3
2019-05-17T06:41:41.866Z,93.16
2019-05-17T06:42:25.893Z,93.45
2019-05-17T06:43:04.158Z,92.11
2019-05-17T06:45:02.239Z,93.07
2019-05-17T06:45:43.019Z,92.45
2019-05-17T06:46:23.701Z,91.59
2019-05-17T06:47:03.842Z,90.34
2019-05-17T06:47:44.251Z,89.82
2019-05-17T06:48:24.635Z,90.3
2019-05-17T06:49:05.015Z,90.68
2019-05-17T06:49:45.555Z,91.45
2019-05-17T06:50:25.860Z,93.07
2019-05-17T06:51:06.299Z,93.36
2019-05-17T06:51:46.721Z,92.88
2019-05-17T06:52:27.246Z,92.02
2019-05-17T06:53:08.738Z,90.39
2019-05-17T06:53:52.346Z,90.2
2019-05-17T06:54:33.061Z,91.16
2019-05-17T06:55:12.906Z,91.93
2019-05-17T06:55:56.436Z,91.93
2019-05-17T06:56:36.887Z,92.59
2019-05-17T06:57:17.232Z,92.79
2019-05-17T06:58:01.522Z,93.45
2019-05-17T06:58:39.630Z,92.5
2019-05-17T06:59:20.147Z,91.74
2019-05-17T07:00:03.083Z,91.64
2019-05-17T07:00:41.021Z,91.11
2019-05-17T07:01:21.377Z,91.11
2019-05-17T07:02:01.882Z,89.77
2019-05-17T07:02:44.040Z,89.29
2019-05-17T07:03:24.499Z,90.73
2019-05-17T07:04:07.051Z,90.82
2019-05-17T07:04:47.399Z,89.67
2019-05-17T07:05:29.418Z,89.58
2019-05-17T07:06:11.492Z,90.11
2019-05-17T07:06:53.812Z,89.87
2019-05-17T07:07:35.120Z,90.11
2019-05-17T07:08:16.256Z,90.97
2019-05-17T07:08:56.795Z,91.06
2019-05-17T07:09:37.222Z,90.88
2019-05-17T07:10:21.889Z,90.68
2019-05-17T07:11:02.282Z,89.96
2019-05-17T07:11:42.678Z,90.06
2019-05-17T07:12:24.017Z,89.01
2019-05-17T07:13:04.367Z,89.48
2019-05-17T07:13:49.571Z,89.87
2019-05-17T07:14:29.449Z,90.01
2019-05-17T07:16:30.036Z,91.35
2019-05-17T07:17:09.864Z,92.16
2019-05-17T07:17:52.299Z,93.26
2019-05-17T07:18:33.493Z,93.98
2019-05-17T07:19:13.887Z,94.55
2019-05-17T07:19:56.067Z,95.32
2019-05-17T07:20:40.598Z,94.46
2019-05-17T07:21:20.988Z,94.89
2019-05-17T07:22:01.493Z,94.7
2019-05-17T07:22:41.878Z,93.45
2019-05-17T07:23:22.576Z,93.36
2019-05-17T07:24:02.991Z,92.4
2019-05-17T07:24:44.478Z,91.06
2019-05-17T07:25:25.263Z,90.97
2019-05-17T07:26:09.125Z,91.11
2019-05-17T07:26:49.778Z,90.78
2019-05-17T07:27:38.624Z,90.82
2019-05-17T07:28:09.969Z,89.1
2019-05-17T07:28:51.487Z,89.39
2019-05-17T07:29:31.934Z,89.58
2019-05-17T07:30:13.267Z,89.01
2019-05-17T07:30:53.822Z,89.44
2019-05-17T07:31:34.240Z,90.3
2019-05-17T07:32:14.710Z,90.59
2019-05-17T07:32:55.090Z,91.83
2019-05-17T07:33:35.521Z,93.26
2019-05-17T07:34:16.110Z,93.98
2019-05-17T07:35:00.299Z,94.55
2019-05-17T07:35:41.068Z,95.61
2019-05-17T07:36:22.893Z,96.84
2019-05-17T07:37:04.088Z,96.46
2019-05-17T07:37:44.559Z,97.61
2019-05-17T07:38:26.592Z,96.66
2019-05-17T07:39:10.729Z,97.61
2019-05-17T07:39:58.510Z,98.52
2019-05-17T07:40:30.396Z,98.61
2019-05-17T07:41:51.485Z,99.18
2019-05-17T07:42:31.412Z,98.71
2019-05-17T07:43:14.640Z,98.32
2019-05-17T07:43:52.275Z,98.71
2019-05-17T07:44:34.605Z,98.9
2019-05-17T07:45:15.167Z,97.94
2019-05-17T07:45:55.549Z,98.32
2019-05-17T07:46:35.955Z,98.13
2019-05-17T07:47:16.348Z,99.57
2019-05-17T07:47:56.988Z,99.66
2019-05-17T07:48:40.301Z,99.99
2019-05-17T07:49:20.053Z,99.99
2019-05-17T07:50:01.160Z,99.99
2019-05-17T07:50:40.695Z,99.99
2019-05-17T07:54:05.228Z,99.23
2019-05-17T07:54:46.216Z,98.99
2019-05-17T07:55:30.260Z,99.99
2019-05-17T07:56:10.230Z,99.99
2019-05-17T07:56:50.522Z,99.99
2019-05-17T07:57:30.072Z,98.9
2019-05-17T07:58:12.372Z,99.57
2019-05-17T07:58:52.982Z,99.18
2019-05-17T07:59:33.300Z,99.95
2019-05-17T08:00:14.238Z,99.99
2019-05-17T08:01:36.898Z,99.99
2019-05-17T08:02:19.785Z,99.23
2019-05-17T08:02:59.886Z,98.47
2019-05-17T08:03:41.586Z,99.14
2019-05-17T08:04:23.160Z,99.33
2019-05-17T08:05:03.822Z,99.8
2019-05-17T08:05:45.960Z,99.14
2019-05-17T08:06:26.877Z,98.75
2019-05-17T08:07:07.488Z,97.89
2019-05-17T08:07:49.974Z,98.57
2019-05-17T08:08:30.866Z,99.85
2019-05-17T08:09:13.694Z,99.99
2019-05-17T08:09:50.601Z,99.99
2019-05-17T08:10:31.593Z,99.99
2019-05-17T08:11:12.198Z,99.99
2019-05-17T08:11:52.629Z,99.99
2019-05-17T08:12:33.420Z,99.71
2019-05-17T08:13:25.470Z,99.99
2019-05-17T08:13:54.269Z,99.99
2019-05-17T08:14:35.269Z,99.99
2019-05-17T08:15:15.661Z,98.57
2019-05-17T08:15:55.943Z,98.94
2019-05-17T08:16:36.606Z,99.28
2019-05-17T08:17:19.671Z,99.99
2019-05-17T08:17:59.344Z,99.99
2019-05-17T08:18:40.088Z,99.99
2019-05-17T08:20:00.508Z,99.99
2019-05-17T08:20:40.009Z,99.99
2019-05-17T08:21:20.202Z,99.99
2019-05-17T08:22:01.562Z,99.99
2019-05-17T08:22:42.104Z,99.99
2019-05-17T08:23:22.660Z,99.99
2019-05-17T08:24:03.070Z,99.99
2019-05-17T08:24:43.597Z,99.99
2019-05-17T08:25:24.018Z,99.99
2019-05-17T08:26:04.382Z,99.99
2019-05-17T08:26:44.807Z,99.99
2019-05-17T08:27:25.321Z,99.99
2019-05-17T08:28:05.790Z,99.99
2019-05-17T08:28:46.153Z,99.99
2019-05-17T08:29:26.657Z,99.99
2019-05-17T08:30:06.971Z,99.99
2019-05-17T08:30:50.302Z,99.99
2019-05-17T08:31:30.504Z,99.99
2019-05-17T08:32:10.870Z,99.99
2019-05-17T08:32:51.513Z,99.99
2019-05-17T08:33:34.477Z,99.99
2019-05-17T08:34:14.855Z,99.99
2019-05-17T08:35:35.751Z,99.99
2019-05-17T08:36:17.138Z,99.99
2019-05-17T08:36:57.457Z,99.99
2019-05-17T08:37:41.831Z,99.99
2019-05-17T08:38:19.676Z,99.99
2019-05-17T08:39:01.378Z,99.99
2019-05-17T08:39:41.258Z,99.99
2019-05-17T08:40:21.892Z,99.99
2019-05-17T08:41:44.545Z,98.47
2019-05-17T08:42:29.814Z,98.94
2019-05-17T08:43:09.716Z,98.66
2019-05-17T08:43:51.329Z,99.95
2019-05-17T08:44:30.167Z,99.99
2019-05-17T08:45:10.602Z,99.99
2019-05-17T08:45:51.098Z,99.99
2019-05-17T08:46:31.521Z,99.99
2019-05-17T08:47:12.632Z,99.99
2019-05-17T08:47:53.033Z,99.99
2019-05-17T08:48:33.568Z,99.99
2019-05-17T08:49:14.097Z,99.99
2019-05-17T08:49:54.676Z,99.8
2019-05-17T08:50:35.695Z,99.99
2019-05-17T08:53:49.264Z,99.99
2019-05-17T08:54:30.401Z,99.99
2019-05-17T08:55:11.287Z,99.99
2019-05-17T08:55:51.845Z,99.99
2019-05-17T08:56:32.213Z,99.99
2019-05-17T08:57:12.612Z,99.99
2019-05-17T08:57:53.245Z,99.99
2019-05-17T08:58:33.625Z,99.99
2019-05-17T09:00:00.962Z,99.99
2019-05-17T09:00:42.173Z,99.99
2019-05-17T09:01:22.716Z,99.99
2019-05-17T09:02:03.275Z,99.99
2019-05-17T09:02:43.584Z,99.99
2019-05-17T09:03:25.974Z,99.99
2019-05-17T09:04:06.497Z,99.99
2019-05-17T09:05:30.423Z,99.99
2019-05-17T09:06:12.591Z,99.99
2019-05-17T09:06:53.278Z,99.99
2019-05-17T09:07:35.225Z,99.99
2019-05-17T09:08:20.311Z,99.99
2019-05-17T09:09:00.761Z,99.99
2019-05-17T09:09:42.058Z,99.99
2019-05-17T09:10:22.586Z,99.99
2019-05-17T09:11:06.194Z,99.99
2019-05-17T09:11:46.773Z,99.99
2019-05-17T09:13:14.642Z,99.99
2019-05-17T09:13:57.468Z,99.99
2019-05-17T09:14:34.897Z,99.99
2019-05-17T09:16:00.207Z,99.99
2019-05-17T09:16:43.160Z,99.99
2019-05-17T09:17:24.662Z,99.99
2019-05-17T09:18:06.452Z,99.99
2019-05-17T09:18:50.165Z,99.99
2019-05-17T09:19:32.386Z,99.99
2019-05-17T09:20:16.308Z,99.99
2019-05-17T09:20:56.789Z,99.99
2019-05-17T09:21:39.692Z,99.99
2019-05-17T09:22:21.006Z,99.99
2019-05-17T09:23:03.348Z,99.99
2019-05-17T09:23:43.699Z,99.99
2019-05-17T09:24:24.511Z,99.99
2019-05-17T09:25:05.206Z,99.99
2019-05-17T09:25:47.331Z,99.99
2019-05-17T09:26:29.507Z,99.99
2019-05-17T09:27:27.037Z,99.99
2019-05-17T09:28:09.491Z,99.99
2019-05-17T09:29:31.882Z,99.99
2019-05-17T09:30:20.284Z,99.99
2019-05-17T09:31:00.241Z,99.99
2019-05-17T09:31:43.072Z,99.99
2019-05-17T09:32:24.415Z,99.99
2019-05-17T09:33:10.985Z,99.99
2019-05-17T09:33:51.085Z,99.99
2019-05-17T09:34:34.940Z,99.99
2019-05-17T09:36:00.666Z,99.99
2019-05-17T09:36:43.029Z,99.99
2019-05-17T09:37:24.507Z,99.99
2019-05-17T09:38:04.935Z,99.99
2019-05-17T09:38:46.733Z,99.99
2019-05-17T09:39:29.374Z,99.99
2019-05-17T09:40:09.318Z,99.99
2019-05-17T09:40:50.272Z,99.99
2019-05-17T09:41:29.910Z,99.99
2019-05-17T09:42:11.387Z,99.99
2019-05-17T09:42:52.998Z,99.99
2019-05-17T09:43:33.780Z,99.99
2019-05-17T09:44:16.469Z,99.99
2019-05-17T09:44:55.505Z,99.99
2019-05-17T09:46:19.610Z,99.99
2019-05-17T09:47:00.020Z,99.99
2019-05-17T09:47:40.566Z,99.99
2019-05-17T09:48:21.022Z,99.99
2019-05-17T09:49:02.702Z,99.99
2019-05-17T09:49:43.685Z,99.99
2019-05-17T09:50:24.159Z,99.99
2019-05-17T09:51:06.527Z,99.99
2019-05-17T09:51:46.872Z,99.99
2019-05-17T09:52:31.077Z,99.99
2019-05-17T09:53:11.457Z,99.99
2019-05-17T09:53:53.657Z,99.99
2019-05-17T09:54:42.190Z,99.99
2019-05-17T09:55:15.447Z,99.99
2019-05-17T09:56:39.334Z,99.99
2019-05-17T09:57:29.762Z,99.99
2019-05-17T09:58:14.620Z,99.99
2019-05-17T09:58:55.112Z,99.99
2019-05-17T09:59:35.507Z,99.99
2019-05-17T10:00:20.779Z,99.99
2019-05-17T10:01:06.608Z,99.99
2019-05-17T10:01:49.462Z,99.99
2019-05-17T10:03:23.226Z,99.99
2019-05-17T10:04:19.838Z,99.99
2019-05-17T10:05:04.728Z,99.99
2019-05-17T10:05:45.503Z,99.99
2019-05-17T10:06:32.515Z,99.99
2019-05-17T10:07:20.546Z,99.99
2019-05-17T10:07:59.947Z,99.99
2019-05-17T10:08:42.274Z,99.99
2019-05-17T10:09:22.636Z,99.99
2019-05-17T10:13:20.095Z,99.99
2019-05-17T10:14:01.103Z,99.99
2019-05-17T10:14:42.729Z,99.99
2019-05-17T10:15:23.173Z,99.9
2019-05-17T10:16:04.487Z,99.99
2019-05-17T10:16:47.823Z,99.99
2019-05-17T10:17:30.982Z,99.99
2019-05-17T10:18:11.484Z,99.99
2019-05-17T10:18:52.579Z,99.99
2019-05-17T10:19:33.245Z,99.99
2019-05-17T10:20:16.439Z,99.99
2019-05-17T10:20:56.594Z,99.99
2019-05-17T10:21:36.956Z,99.99
2019-05-17T10:22:19.982Z,99.99
2019-05-17T10:23:40.602Z,99.99
2019-05-17T10:24:33.797Z,99.99
2019-05-17T10:25:01.653Z,99.99
2019-05-17T10:26:23.274Z,99.99
2019-05-17T10:27:07.374Z,99.99
2019-05-17T10:27:49.777Z,99.99
2019-05-17T10:28:29.226Z,99.99
2019-05-17T10:29:10.056Z,99.99
2019-05-17T10:29:51.037Z,99.99
2019-05-17T11:07:40.868Z,99.99
2019-05-17T11:08:21.522Z,99.99
2019-05-17T11:09:01.913Z,99.99
2019-05-17T11:09:44.951Z,99.99
2019-05-17T11:10:26.944Z,99.99
2019-05-17T11:11:10.033Z,99.99
2019-05-17T11:11:47.916Z,99.99
2019-05-17T11:12:28.333Z,99.99
2019-05-17T11:13:08.886Z,99.99
2019-05-17T11:13:52.815Z,99.99
2019-05-17T11:14:32.067Z,99.99
2019-05-17T11:15:12.403Z,99.99
2019-05-17T11:15:54.784Z,99.99
2019-05-17T11:16:37.284Z,99.99
2019-05-17T11:17:17.769Z,99.99
2019-05-17T11:17:58.169Z,99.99
2019-05-17T11:18:38.663Z,99.99
2019-05-17T11:19:20.047Z,99.99
2019-05-17T11:20:00.483Z,99.99
2019-05-17T11:20:41.808Z,99.99
2019-05-17T11:21:31.401Z,99.99
2019-05-17T11:22:12.594Z,99.99
2019-05-17T11:22:53.412Z,99.99
2019-05-17T11:23:37.030Z,99.99
2019-05-17T11:24:34.230Z,99.99
2019-05-17T11:25:14.563Z,99.99
2019-05-17T11:25:54.946Z,99.99
2019-05-17T11:26:36.344Z,99.99
2019-05-17T11:27:16.968Z,99.99
2019-05-17T11:27:58.418Z,99.99
2019-05-17T11:28:38.710Z,99.99
2019-05-17T11:29:20.247Z,99.99
2019-05-17T11:30:01.201Z,99.99
2019-05-17T11:30:41.655Z,99.99
2019-05-17T11:32:04.287Z,99.99
2019-05-17T11:32:44.734Z,99.99
2019-05-17T11:33:25.348Z,99.99
2019-05-17T11:36:47.808Z,99.99
2019-05-17T11:37:28.033Z,99.99
2019-05-17T11:38:08.396Z,99.99
2019-05-17T11:38:54.041Z,99.99
2019-05-17T11:39:34.504Z,99.99
2019-05-17T11:40:15.013Z,99.99
2019-05-17T11:40:56.567Z,99.99
2019-05-17T11:41:36.784Z,99.99
2019-05-17T11:42:17.223Z,99.99
2019-05-17T11:42:58.675Z,99.99
2019-05-17T11:43:41.175Z,99.99
2019-05-17T11:44:23.336Z,99.99
2019-05-17T11:45:03.751Z,99.99
2019-05-17T11:45:44.237Z,99.99
2019-05-17T11:49:45.255Z,99.99
2019-05-17T11:50:25.718Z,99.99
2019-05-17T11:51:06.250Z,99.99
2019-05-17T11:51:46.827Z,99.99
2019-05-17T11:52:27.235Z,99.99
2019-05-17T11:53:08.111Z,99.99
2019-05-17T11:53:48.485Z,99.99
2019-05-17T11:54:29.176Z,99.99
2019-05-17T11:55:10.499Z,99.99
2019-05-17T11:55:50.949Z,99.99
2019-05-17T11:56:32.284Z,99.99
2019-05-17T11:57:13.491Z,99.99
2019-05-17T11:57:53.768Z,99.99
2019-05-17T11:58:35.160Z,99.99
2019-05-17T11:59:15.532Z,99.99
2019-05-17T11:59:55.941Z,99.99
2019-05-17T12:00:36.296Z,99.99
2019-05-17T12:01:16.695Z,99.99
2019-05-17T12:01:57.053Z,99.99
2019-05-17T12:02:37.421Z,99.99
2019-05-17T12:03:17.814Z,99.99
2019-05-17T12:03:58.234Z,99.99
2019-05-17T12:04:38.562Z,99.99
2019-05-17T12:05:18.960Z,99.99
2019-05-17T12:05:59.353Z,99.99
2019-05-17T12:06:39.724Z,99.99
2019-05-17T12:07:20.226Z,99.99
2019-05-17T12:08:00.538Z,99.99
2019-05-17T12:08:42.668Z,99.99
2019-05-17T12:09:36.371Z,99.99
2019-05-17T12:10:03.491Z,99.99
2019-05-17T12:10:43.913Z,99.99
2019-05-17T12:11:24.215Z,99.99
2019-05-17T12:12:04.674Z,99.99
2019-05-17T12:12:45.966Z,99.99
2019-05-17T12:13:26.378Z,99.99
2019-05-17T12:14:06.802Z,99.99
2019-05-17T12:14:48.956Z,99.99
2019-05-17T12:15:43.500Z,99.99
2019-05-17T12:16:09.830Z,99.99
2019-05-17T12:16:50.216Z,99.99
2019-05-17T12:17:32.257Z,99.99
2019-05-17T12:18:12.810Z,99.99
2019-05-17T12:21:54.027Z,99.99
2019-05-17T12:23:02.857Z,99.99
2019-05-17T12:25:14.156Z,99.99
2019-05-17T12:26:16.608Z,99.99
2019-05-17T12:27:17.472Z,99.99
2019-05-17T12:28:12.603Z,99.99
2019-05-17T12:29:11.247Z,99.99
2019-05-17T12:30:09.831Z,99.99
2019-05-17T12:31:06.218Z,99.99
2019-05-17T12:32:07.110Z,99.99
2019-05-17T12:33:12.435Z,99.99
2019-05-17T12:34:10.084Z,99.99
2019-05-17T12:35:09.770Z,99.99
2019-05-17T12:36:22.795Z,99.99
2019-05-17T12:44:45.420Z,99.99
2019-05-17T12:45:25.753Z,99.99
2019-05-17T12:46:06.387Z,99.99
2019-05-17T12:46:46.797Z,99.99
2019-05-17T12:47:27.250Z,99.99
2019-05-17T12:48:07.607Z,99.99
2019-05-17T12:48:47.970Z,99.99
2019-05-17T12:52:52.792Z,99.99
2019-05-17T12:53:48.980Z,99.99
2019-05-17T12:54:41.840Z,99.99
2019-05-17T12:55:36.294Z,99.99
2019-05-17T12:56:35.037Z,99.99
2019-05-17T12:57:27.630Z,99.99
2019-05-17T12:58:20.803Z,99.99
2019-05-17T12:59:24.534Z,99.99
2019-05-17T13:00:21.203Z,99.99
2019-05-17T13:01:48.691Z,99.99
2019-05-17T13:09:34.864Z,99.99
2019-05-17T13:10:18.007Z,99.99
2019-05-17T13:10:58.348Z,99.99
2019-05-17T13:11:38.785Z,99.99
2019-05-17T13:12:19.100Z,99.99
2019-05-17T13:12:59.509Z,99.99
2019-05-17T13:13:40.277Z,99.99
2019-05-17T13:14:23.512Z,99.99
2019-05-17T13:15:03.942Z,99.99
2019-05-17T13:15:45.315Z,99.99
2019-05-17T13:16:26.100Z,99.99
2019-05-17T13:17:06.528Z,99.99
2019-05-17T13:17:47.141Z,99.99
2019-05-17T13:18:27.749Z,99.99
2019-05-17T13:19:08.116Z,99.99
2019-05-17T13:19:48.580Z,99.99
2019-05-17T13:20:28.905Z,99.99
2019-05-17T13:21:09.356Z,99.99
2019-05-17T13:21:49.730Z,99.99
2019-05-17T13:22:30.102Z,99.99
2019-05-17T13:23:11.486Z,99.99
2019-05-17T13:23:51.857Z,99.99
2019-05-17T13:24:32.680Z,99.99
2019-05-17T13:25:15.030Z,99.99
2019-05-17T13:25:55.410Z,99.99
2019-05-17T13:26:37.785Z,99.99
2019-05-17T13:27:18.171Z,99.99
2019-05-17T13:28:00.551Z,99.99
2019-05-17T13:28:40.935Z,99.99
2019-05-17T13:29:21.309Z,99.99
2019-05-17T13:30:02.088Z,99.99
2019-05-17T13:30:42.442Z,99.99
2019-05-17T13:31:22.818Z,99.99
2019-05-17T13:32:03.250Z,99.99
2019-05-17T13:32:43.639Z,99.99
2019-05-17T13:33:26.929Z,99.99
2019-05-17T13:34:05.736Z,99.99
2019-05-17T13:34:46.118Z,99.62
2019-05-17T13:35:28.567Z,99.33
2019-05-17T13:36:49.260Z,99.99
2019-05-17T13:37:29.670Z,99.99
2019-05-17T13:38:10.039Z,99.72
2019-05-17T13:38:50.412Z,99.99
2019-05-17T13:39:30.866Z,99.81
2019-05-17T13:40:11.450Z,99.99
2019-05-17T13:40:51.777Z,99.99
2019-05-17T13:41:32.640Z,99.99
2019-05-17T13:42:13.881Z,99.99
2019-05-17T13:42:54.267Z,99.99
2019-05-17T13:43:34.678Z,99.99
2019-05-17T13:44:15.206Z,99.99
2019-05-17T13:44:55.866Z,99.99
2019-05-17T13:45:36.223Z,99.87
2019-05-17T13:46:16.624Z,99.67
2019-05-17T13:46:57.493Z,99.99
2019-05-17T13:47:37.561Z,99.53
2019-05-17T13:48:17.941Z,99.24
2019-05-17T13:48:58.354Z,98.47
2019-05-17T13:49:38.759Z,98.76
2019-05-17T13:50:19.126Z,98.28
2019-05-17T13:51:00.751Z,97.8
2019-05-17T13:51:40.865Z,95.22
2019-05-17T13:52:21.264Z,95.31
2019-05-17T13:53:01.726Z,94.35
2019-05-17T13:53:42.700Z,94.84
2019-05-17T13:54:22.963Z,96.94
2019-05-17T13:55:03.400Z,96.84
2019-05-17T13:55:43.783Z,95.79
2019-05-17T13:56:24.275Z,94.69
2019-05-17T13:57:06.154Z,94.79
2019-05-17T13:57:47.897Z,91.82
2019-05-17T13:58:28.175Z,91.63
2019-05-17T13:59:09.136Z,93.93
2019-05-17T13:59:50.506Z,92.77
2019-05-17T14:00:32.751Z,91.24
2019-05-17T14:01:13.183Z,90.19
2019-05-17T14:01:53.530Z,91.48
2019-05-17T14:02:33.925Z,91.86
2019-05-17T14:03:14.329Z,92.24
2019-05-17T14:03:54.716Z,89.65
2019-05-17T14:05:15.522Z,89.89
2019-05-17T14:05:55.900Z,89.79
2019-05-17T14:06:36.577Z,88.26
2019-05-17T14:07:57.328Z,87.98
2019-05-17T14:08:37.718Z,87.98
2019-05-17T14:09:18.112Z,89.79
2019-05-17T14:09:58.509Z,90.85
2019-05-17T14:10:40.533Z,90.18
2019-05-17T14:11:20.976Z,88.84
2019-05-17T14:12:01.341Z,88.45
2019-05-17T14:12:41.764Z,87.49
2019-05-17T14:13:23.066Z,88.79
2019-05-17T14:14:03.472Z,88.89
2019-05-17T14:14:44.829Z,88.22
2019-05-17T14:15:25.534Z,88.31
2019-05-17T14:16:05.872Z,88.89
2019-05-17T14:16:46.464Z,88.98
2019-05-17T14:18:07.379Z,90.95
2019-05-17T14:18:47.910Z,91.43
2019-05-17T14:19:28.267Z,90.23
2019-05-17T14:20:11.529Z,90.9
2019-05-17T14:20:53.930Z,91.57
2019-05-17T14:21:34.475Z,88.89
2019-05-17T14:22:14.803Z,88.31
2019-05-17T14:22:55.549Z,87.84
2019-05-17T14:23:37.419Z,88.6
2019-05-17T14:24:58.336Z,88.98
2019-05-17T14:25:38.885Z,88.7
2019-05-17T14:26:19.117Z,89.08
2019-05-17T14:27:40.118Z,89.75
2019-05-17T14:28:20.329Z,91.24